sensor_id;sensor_type;location;lat;lon;timestamp;temperature;humidity
45849;DHT22;31567;54.600;9.842;2023-12-14T00:01:08;4.40;99.90
45849;DHT22;31567;54.600;9.842;2023-12-14T00:04:49;4.50;99.90
45849;DHT22;31567;54.600;9.842;2023-12-14T00:08:29;4.50;99.90
45849;DHT22;31567;54.600;9.842;2023-12-14T00:12:08;4.50;99.90
45849;DHT22;31567;54.600;9.842;2023-12-14T00:15:48;4.50;99.90
45849;DHT22;31567;54.600;9.842;2023-12-14T00:19:29;4.50;99.90
45849;DHT22;31567;54.600;9.842;2023-12-14T00:36:56;4.50;99.90
45849;DHT22;31567;54.600;9.842;2023-12-14T00:40:36;4.50;99.90
45849;DHT22;31567;54.600;9.842;2023-12-14T00:44:15;4.50;99.90
45849;DHT22;31567;54.600;9.842;2023-12-14T00:47:55;4.50;99.90
45849;DHT22;31567;54.600;9.842;2023-12-14T00:51:35;4.50;99.90
45849;DHT22;31567;54.600;9.842;2023-12-14T00:55:14;4.50;99.90
45849;DHT22;31567;54.600;9.842;2023-12-14T00:58:54;4.50;99.90
45849;DHT22;31567;54.600;9.842;2023-12-14T01:02:33;4.60;99.90
45849;DHT22;31567;54.600;9.842;2023-12-14T01:06:13;4.60;99.90
45849;DHT22;31567;54.600;9.842;2023-12-14T01:09:52;4.60;99.90
45849;DHT22;31567;54.600;9.842;2023-12-14T01:13:32;4.60;99.90
45849;DHT22;31567;54.600;9.842;2023-12-14T01:17:11;4.50;99.90
45849;DHT22;31567;54.600;9.842;2023-12-14T01:25:27;4.60;99.90
45849;DHT22;31567;54.600;9.842;2023-12-14T01:29:06;4.50;99.90
45849;DHT22;31567;54.600;9.842;2023-12-14T01:32:46;4.60;99.90
45849;DHT22;31567;54.600;9.842;2023-12-14T01:36:26;4.60;99.90
45849;DHT22;31567;54.600;9.842;2023-12-14T01:40:06;4.60;99.90
45849;DHT22;31567;54.600;9.842;2023-12-14T01:43:46;4.60;99.90
45849;DHT22;31567;54.600;9.842;2023-12-14T01:47:25;4.60;99.90
45849;DHT22;31567;54.600;9.842;2023-12-14T01:51:05;4.70;99.90
45849;DHT22;31567;54.600;9.842;2023-12-14T01:54:44;4.70;99.90
45849;DHT22;31567;54.600;9.842;2023-12-14T01:58:24;4.70;99.90
45849;DHT22;31567;54.600;9.842;2023-12-14T02:02:04;4.70;99.90
45849;DHT22;31567;54.600;9.842;2023-12-14T02:05:44;4.70;99.90
45849;DHT22;31567;54.600;9.842;2023-12-14T02:09:24;4.70;99.90
45849;DHT22;31567;54.600;9.842;2023-12-14T02:13:04;4.80;99.90
45849;DHT22;31567;54.600;9.842;2023-12-14T02:16:44;4.70;99.90
45849;DHT22;31567;54.600;9.842;2023-12-14T02:20:23;4.80;99.90
45849;DHT22;31567;54.600;9.842;2023-12-14T02:24:03;4.80;99.90
45849;DHT22;31567;54.600;9.842;2023-12-14T02:27:43;4.80;99.90
45849;DHT22;31567;54.600;9.842;2023-12-14T02:31:23;4.80;99.90
45849;DHT22;31567;54.600;9.842;2023-12-14T02:35:03;4.80;99.90
45849;DHT22;31567;54.600;9.842;2023-12-14T02:38:42;4.80;99.90
45849;DHT22;31567;54.600;9.842;2023-12-14T02:42:22;4.80;99.90
45849;DHT22;31567;54.600;9.842;2023-12-14T02:46:01;4.80;99.90
45849;DHT22;31567;54.600;9.842;2023-12-14T02:49:42;4.80;99.90
45849;DHT22;31567;54.600;9.842;2023-12-14T02:53:21;4.80;99.90
45849;DHT22;31567;54.600;9.842;2023-12-14T02:57:01;4.80;99.90
45849;DHT22;31567;54.600;9.842;2023-12-14T03:00:40;4.80;99.90
45849;DHT22;31567;54.600;9.842;2023-12-14T03:04:20;4.80;99.90
45849;DHT22;31567;54.600;9.842;2023-12-14T03:08:00;4.70;99.90
45849;DHT22;31567;54.600;9.842;2023-12-14T03:11:39;4.70;99.90
45849;DHT22;31567;54.600;9.842;2023-12-14T03:15:19;4.70;99.90
45849;DHT22;31567;54.600;9.842;2023-12-14T03:18:58;4.70;99.90
45849;DHT22;31567;54.600;9.842;2023-12-14T03:22:38;4.70;99.90
45849;DHT22;31567;54.600;9.842;2023-12-14T03:26:17;4.70;99.90
45849;DHT22;31567;54.600;9.842;2023-12-14T03:29:57;4.70;99.90
45849;DHT22;31567;54.600;9.842;2023-12-14T03:33:37;4.70;99.90
45849;DHT22;31567;54.600;9.842;2023-12-14T03:37:16;4.70;99.90
45849;DHT22;31567;54.600;9.842;2023-12-14T03:40:56;4.60;99.90
45849;DHT22;31567;54.600;9.842;2023-12-14T03:44:35;4.60;99.90
45849;DHT22;31567;54.600;9.842;2023-12-14T03:48:15;4.60;99.90
45849;DHT22;31567;54.600;9.842;2023-12-14T03:51:54;4.60;99.90
45849;DHT22;31567;54.600;9.842;2023-12-14T03:55:34;4.50;99.90
45849;DHT22;31567;54.600;9.842;2023-12-14T03:59:13;4.50;99.90
45849;DHT22;31567;54.600;9.842;2023-12-14T04:02:53;4.50;99.90
45849;DHT22;31567;54.600;9.842;2023-12-14T04:06:32;4.50;99.90
45849;DHT22;31567;54.600;9.842;2023-12-14T04:10:13;4.50;99.90
45849;DHT22;31567;54.600;9.842;2023-12-14T04:13:52;4.50;99.90
45849;DHT22;31567;54.600;9.842;2023-12-14T04:17:33;4.50;99.90
45849;DHT22;31567;54.600;9.842;2023-12-14T04:21:13;4.50;99.90
45849;DHT22;31567;54.600;9.842;2023-12-14T04:24:52;4.50;99.90
45849;DHT22;31567;54.600;9.842;2023-12-14T04:28:32;4.50;99.90
45849;DHT22;31567;54.600;9.842;2023-12-14T04:32:12;4.50;99.90
45849;DHT22;31567;54.600;9.842;2023-12-14T04:35:51;4.40;99.90
45849;DHT22;31567;54.600;9.842;2023-12-14T04:39:32;4.40;99.90
45849;DHT22;31567;54.600;9.842;2023-12-14T04:43:12;4.50;99.90
45849;DHT22;31567;54.600;9.842;2023-12-14T04:46:52;4.50;99.90
45849;DHT22;31567;54.600;9.842;2023-12-14T04:50:31;4.50;99.90
45849;DHT22;31567;54.600;9.842;2023-12-14T04:54:11;4.50;99.90
45849;DHT22;31567;54.600;9.842;2023-12-14T04:57:51;4.40;99.90
45849;DHT22;31567;54.600;9.842;2023-12-14T05:01:30;4.40;99.90
45849;DHT22;31567;54.600;9.842;2023-12-14T05:05:10;4.40;99.90
45849;DHT22;31567;54.600;9.842;2023-12-14T05:08:49;4.40;99.90
45849;DHT22;31567;54.600;9.842;2023-12-14T05:12:29;4.40;99.90
45849;DHT22;31567;54.600;9.842;2023-12-14T05:16:14;4.40;99.90
45849;DHT22;31567;54.600;9.842;2023-12-14T05:19:54;4.40;99.90
45849;DHT22;31567;54.600;9.842;2023-12-14T05:23:33;4.40;99.90
45849;DHT22;31567;54.600;9.842;2023-12-14T05:27:13;4.40;99.90
45849;DHT22;31567;54.600;9.842;2023-12-14T05:30:53;4.50;99.90
45849;DHT22;31567;54.600;9.842;2023-12-14T05:34:33;4.50;99.90
45849;DHT22;31567;54.600;9.842;2023-12-14T05:38:12;4.50;99.90
45849;DHT22;31567;54.600;9.842;2023-12-14T05:41:52;4.60;99.90
45849;DHT22;31567;54.600;9.842;2023-12-14T05:45:31;4.50;99.90
45849;DHT22;31567;54.600;9.842;2023-12-14T05:49:11;4.60;99.90
45849;DHT22;31567;54.600;9.842;2023-12-14T05:52:50;4.70;99.90
45849;DHT22;31567;54.600;9.842;2023-12-14T05:56:30;4.70;99.90
45849;DHT22;31567;54.600;9.842;2023-12-14T06:00:10;4.80;99.90
45849;DHT22;31567;54.600;9.842;2023-12-14T06:03:50;4.90;99.90
45849;DHT22;31567;54.600;9.842;2023-12-14T06:07:29;4.90;99.90
45849;DHT22;31567;54.600;9.842;2023-12-14T06:11:09;5.00;99.90
45849;DHT22;31567;54.600;9.842;2023-12-14T06:14:48;5.00;99.90
45849;DHT22;31567;54.600;9.842;2023-12-14T06:18:29;4.90;99.90
45849;DHT22;31567;54.600;9.842;2023-12-14T06:22:09;4.90;99.90
45849;DHT22;31567;54.600;9.842;2023-12-14T06:25:48;5.00;99.90
45849;DHT22;31567;54.600;9.842;2023-12-14T06:29:28;4.90;99.90
45849;DHT22;31567;54.600;9.842;2023-12-14T06:33:07;5.00;99.90
45849;DHT22;31567;54.600;9.842;2023-12-14T06:36:47;5.10;99.90
45849;DHT22;31567;54.600;9.842;2023-12-14T06:40:27;5.10;99.90
45849;DHT22;31567;54.600;9.842;2023-12-14T06:44:06;5.10;99.90
45849;DHT22;31567;54.600;9.842;2023-12-14T06:47:48;5.10;99.90
45849;DHT22;31567;54.600;9.842;2023-12-14T06:51:29;5.20;99.90
45849;DHT22;31567;54.600;9.842;2023-12-14T06:55:08;5.20;99.90
45849;DHT22;31567;54.600;9.842;2023-12-14T06:58:48;5.20;99.90
45849;DHT22;31567;54.600;9.842;2023-12-14T07:02:28;5.20;99.90
45849;DHT22;31567;54.600;9.842;2023-12-14T07:06:12;5.20;99.90
45849;DHT22;31567;54.600;9.842;2023-12-14T07:09:51;5.20;99.90
45849;DHT22;31567;54.600;9.842;2023-12-14T07:13:31;5.30;99.90
45849;DHT22;31567;54.600;9.842;2023-12-14T07:17:11;5.30;99.90
45849;DHT22;31567;54.600;9.842;2023-12-14T07:20:50;5.30;99.90
45849;DHT22;31567;54.600;9.842;2023-12-14T07:24:30;5.30;99.90
45849;DHT22;31567;54.600;9.842;2023-12-14T07:28:10;5.30;99.90
45849;DHT22;31567;54.600;9.842;2023-12-14T07:31:49;5.30;99.90
45849;DHT22;31567;54.600;9.842;2023-12-14T07:35:29;5.30;99.90
45849;DHT22;31567;54.600;9.842;2023-12-14T07:39:08;5.40;99.90
45849;DHT22;31567;54.600;9.842;2023-12-14T07:42:48;5.30;99.90
45849;DHT22;31567;54.600;9.842;2023-12-14T07:46:28;5.30;99.90
45849;DHT22;31567;54.600;9.842;2023-12-14T07:50:08;5.30;99.90
45849;DHT22;31567;54.600;9.842;2023-12-14T07:53:48;5.30;99.90
45849;DHT22;31567;54.600;9.842;2023-12-14T07:57:28;5.20;99.90
45849;DHT22;31567;54.600;9.842;2023-12-14T08:01:07;5.20;99.90
45849;DHT22;31567;54.600;9.842;2023-12-14T08:04:47;5.20;99.90
45849;DHT22;31567;54.600;9.842;2023-12-14T08:08:27;5.20;99.90
45849;DHT22;31567;54.600;9.842;2023-12-14T08:12:06;5.30;99.90
45849;DHT22;31567;54.600;9.842;2023-12-14T08:15:46;5.10;99.90
45849;DHT22;31567;54.600;9.842;2023-12-14T08:19:26;5.00;99.90
45849;DHT22;31567;54.600;9.842;2023-12-14T08:23:05;5.00;99.90
45849;DHT22;31567;54.600;9.842;2023-12-14T08:26:45;5.00;99.90
45849;DHT22;31567;54.600;9.842;2023-12-14T08:30:24;5.10;99.90
45849;DHT22;31567;54.600;9.842;2023-12-14T08:34:04;5.20;99.90
45849;DHT22;31567;54.600;9.842;2023-12-14T08:37:43;5.30;99.90
45849;DHT22;31567;54.600;9.842;2023-12-14T08:41:23;5.40;99.90
45849;DHT22;31567;54.600;9.842;2023-12-14T08:45:03;5.40;99.90
45849;DHT22;31567;54.600;9.842;2023-12-14T08:48:42;5.50;99.90
45849;DHT22;31567;54.600;9.842;2023-12-14T08:52:22;5.60;99.90
45849;DHT22;31567;54.600;9.842;2023-12-14T08:56:02;5.70;99.90
45849;DHT22;31567;54.600;9.842;2023-12-14T08:59:42;5.70;99.90
45849;DHT22;31567;54.600;9.842;2023-12-14T09:03:22;5.80;99.90
45849;DHT22;31567;54.600;9.842;2023-12-14T09:07:02;5.80;99.90
45849;DHT22;31567;54.600;9.842;2023-12-14T09:10:43;5.90;99.90
45849;DHT22;31567;54.600;9.842;2023-12-14T09:14:23;5.90;99.90
45849;DHT22;31567;54.600;9.842;2023-12-14T09:18:03;5.90;99.90
45849;DHT22;31567;54.600;9.842;2023-12-14T09:21:42;5.90;99.90
45849;DHT22;31567;54.600;9.842;2023-12-14T09:25:22;6.00;99.90
45849;DHT22;31567;54.600;9.842;2023-12-14T09:29:02;5.90;99.90
45849;DHT22;31567;54.600;9.842;2023-12-14T09:32:42;6.00;99.90
45849;DHT22;31567;54.600;9.842;2023-12-14T09:36:22;6.00;99.90
45849;DHT22;31567;54.600;9.842;2023-12-14T09:40:02;5.90;99.90
45849;DHT22;31567;54.600;9.842;2023-12-14T09:43:42;6.00;99.90
45849;DHT22;31567;54.600;9.842;2023-12-14T09:47:23;6.00;99.90
45849;DHT22;31567;54.600;9.842;2023-12-14T09:51:02;6.00;99.90
45849;DHT22;31567;54.600;9.842;2023-12-14T09:54:42;6.00;99.90
45849;DHT22;31567;54.600;9.842;2023-12-14T09:58:22;6.00;99.90
45849;DHT22;31567;54.600;9.842;2023-12-14T10:02:12;6.00;99.90
45849;DHT22;31567;54.600;9.842;2023-12-14T10:05:54;6.10;99.90
45849;DHT22;31567;54.600;9.842;2023-12-14T10:09:36;6.20;99.90
45849;DHT22;31567;54.600;9.842;2023-12-14T10:13:16;6.20;99.90
45849;DHT22;31567;54.600;9.842;2023-12-14T10:16:56;6.30;99.90
45849;DHT22;31567;54.600;9.842;2023-12-14T10:20:35;6.30;99.90
45849;DHT22;31567;54.600;9.842;2023-12-14T10:24:17;6.30;99.90
45849;DHT22;31567;54.600;9.842;2023-12-14T10:27:57;6.40;99.90
45849;DHT22;31567;54.600;9.842;2023-12-14T10:31:37;6.40;99.90
45849;DHT22;31567;54.600;9.842;2023-12-14T10:35:17;6.50;99.90
45849;DHT22;31567;54.600;9.842;2023-12-14T10:39:00;6.60;99.90
45849;DHT22;31567;54.600;9.842;2023-12-14T10:42:43;6.60;99.90
45849;DHT22;31567;54.600;9.842;2023-12-14T10:46:26;6.70;99.90
45849;DHT22;31567;54.600;9.842;2023-12-14T10:50:06;6.70;99.90
45849;DHT22;31567;54.600;9.842;2023-12-14T10:53:47;6.70;99.90
45849;DHT22;31567;54.600;9.842;2023-12-14T10:57:28;6.70;99.90
45849;DHT22;31567;54.600;9.842;2023-12-14T11:01:13;6.80;99.90
45849;DHT22;31567;54.600;9.842;2023-12-14T11:05:02;6.80;99.90
45849;DHT22;31567;54.600;9.842;2023-12-14T11:08:48;6.80;99.90
45849;DHT22;31567;54.600;9.842;2023-12-14T11:12:28;6.90;99.90
45849;DHT22;31567;54.600;9.842;2023-12-14T11:16:08;6.90;99.90
45849;DHT22;31567;54.600;9.842;2023-12-14T11:19:47;7.00;99.90
45849;DHT22;31567;54.600;9.842;2023-12-14T11:23:31;7.00;99.90
45849;DHT22;31567;54.600;9.842;2023-12-14T11:27:11;7.00;99.90
45849;DHT22;31567;54.600;9.842;2023-12-14T11:30:51;7.00;99.90
45849;DHT22;31567;54.600;9.842;2023-12-14T11:34:31;7.00;99.90
45849;DHT22;31567;54.600;9.842;2023-12-14T11:38:11;7.00;99.90
45849;DHT22;31567;54.600;9.842;2023-12-14T11:42:02;7.00;99.90
45849;DHT22;31567;54.600;9.842;2023-12-14T11:45:42;7.10;99.90
45849;DHT22;31567;54.600;9.842;2023-12-14T11:49:25;7.00;99.90
45849;DHT22;31567;54.600;9.842;2023-12-14T11:53:05;7.00;99.90
45849;DHT22;31567;54.600;9.842;2023-12-14T11:56:49;7.00;99.90
45849;DHT22;31567;54.600;9.842;2023-12-14T12:00:30;7.00;99.90
45849;DHT22;31567;54.600;9.842;2023-12-14T12:04:10;6.90;99.90
45849;DHT22;31567;54.600;9.842;2023-12-14T12:07:57;6.80;99.90
45849;DHT22;31567;54.600;9.842;2023-12-14T12:11:36;6.90;99.90
45849;DHT22;31567;54.600;9.842;2023-12-14T12:15:16;6.90;99.90
45849;DHT22;31567;54.600;9.842;2023-12-14T12:18:58;6.90;99.90
45849;DHT22;31567;54.600;9.842;2023-12-14T12:22:37;6.90;99.90
45849;DHT22;31567;54.600;9.842;2023-12-14T12:26:17;6.90;99.90
45849;DHT22;31567;54.600;9.842;2023-12-14T12:29:56;6.90;99.90
45849;DHT22;31567;54.600;9.842;2023-12-14T12:33:36;7.00;99.90
45849;DHT22;31567;54.600;9.842;2023-12-14T12:37:17;7.00;99.90
45849;DHT22;31567;54.600;9.842;2023-12-14T12:40:56;7.00;99.90
45849;DHT22;31567;54.600;9.842;2023-12-14T12:44:36;7.00;99.90
45849;DHT22;31567;54.600;9.842;2023-12-14T12:48:15;6.90;99.90
45849;DHT22;31567;54.600;9.842;2023-12-14T12:51:55;6.80;99.90
45849;DHT22;31567;54.600;9.842;2023-12-14T12:55:35;6.70;99.90
45849;DHT22;31567;54.600;9.842;2023-12-14T12:59:14;6.60;99.90
45849;DHT22;31567;54.600;9.842;2023-12-14T13:02:54;6.60;99.90
45849;DHT22;31567;54.600;9.842;2023-12-14T13:06:34;6.50;99.90
45849;DHT22;31567;54.600;9.842;2023-12-14T13:10:13;6.40;99.90
45849;DHT22;31567;54.600;9.842;2023-12-14T13:13:54;6.40;99.90
45849;DHT22;31567;54.600;9.842;2023-12-14T13:17:33;6.40;99.90
45849;DHT22;31567;54.600;9.842;2023-12-14T13:21:13;6.50;99.90
45849;DHT22;31567;54.600;9.842;2023-12-14T13:24:53;6.50;99.90
45849;DHT22;31567;54.600;9.842;2023-12-14T13:28:32;6.60;99.90
45849;DHT22;31567;54.600;9.842;2023-12-14T13:32:12;6.70;99.90
45849;DHT22;31567;54.600;9.842;2023-12-14T13:35:51;6.70;99.90
45849;DHT22;31567;54.600;9.842;2023-12-14T13:39:32;6.70;99.90
45849;DHT22;31567;54.600;9.842;2023-12-14T13:43:14;6.60;99.90
45849;DHT22;31567;54.600;9.842;2023-12-14T13:46:53;6.70;99.70
45849;DHT22;31567;54.600;9.842;2023-12-14T13:50:33;6.60;99.60
45849;DHT22;31567;54.600;9.842;2023-12-14T13:54:13;6.60;99.50
45849;DHT22;31567;54.600;9.842;2023-12-14T13:57:53;6.60;99.70
45849;DHT22;31567;54.600;9.842;2023-12-14T14:01:32;6.50;99.70
45849;DHT22;31567;54.600;9.842;2023-12-14T14:05:12;6.50;99.90
45849;DHT22;31567;54.600;9.842;2023-12-14T14:08:51;6.50;99.90
45849;DHT22;31567;54.600;9.842;2023-12-14T14:12:31;6.50;99.90
45849;DHT22;31567;54.600;9.842;2023-12-14T14:16:10;6.50;99.90
45849;DHT22;31567;54.600;9.842;2023-12-14T14:19:50;6.50;99.90
45849;DHT22;31567;54.600;9.842;2023-12-14T14:23:29;6.50;99.90
45849;DHT22;31567;54.600;9.842;2023-12-14T14:27:10;6.50;99.90
45849;DHT22;31567;54.600;9.842;2023-12-14T14:30:50;6.60;99.90
45849;DHT22;31567;54.600;9.842;2023-12-14T14:34:30;6.60;99.90
45849;DHT22;31567;54.600;9.842;2023-12-14T14:38:09;6.40;99.90
45849;DHT22;31567;54.600;9.842;2023-12-14T14:41:49;6.40;99.90
45849;DHT22;31567;54.600;9.842;2023-12-14T14:45:28;6.40;99.90
45849;DHT22;31567;54.600;9.842;2023-12-14T14:49:08;6.40;99.90
45849;DHT22;31567;54.600;9.842;2023-12-14T14:52:48;6.40;99.90
45849;DHT22;31567;54.600;9.842;2023-12-14T14:56:27;6.40;99.90
45849;DHT22;31567;54.600;9.842;2023-12-14T15:00:07;6.40;99.90
45849;DHT22;31567;54.600;9.842;2023-12-14T15:03:47;6.30;99.90
45849;DHT22;31567;54.600;9.842;2023-12-14T15:07:27;6.40;99.90
45849;DHT22;31567;54.600;9.842;2023-12-14T15:11:08;6.40;99.90
45849;DHT22;31567;54.600;9.842;2023-12-14T15:14:49;6.40;99.90
45849;DHT22;31567;54.600;9.842;2023-12-14T15:18:29;6.20;99.90
45849;DHT22;31567;54.600;9.842;2023-12-14T15:22:09;6.00;99.90
45849;DHT22;31567;54.600;9.842;2023-12-14T15:25:48;5.80;99.90
45849;DHT22;31567;54.600;9.842;2023-12-14T15:29:28;5.70;99.90
45849;DHT22;31567;54.600;9.842;2023-12-14T15:33:07;5.50;99.90
45849;DHT22;31567;54.600;9.842;2023-12-14T15:36:47;5.40;99.90
45849;DHT22;31567;54.600;9.842;2023-12-14T15:40:27;5.30;99.90
45849;DHT22;31567;54.600;9.842;2023-12-14T15:44:08;5.20;99.90
45849;DHT22;31567;54.600;9.842;2023-12-14T15:47:47;5.10;99.90
45849;DHT22;31567;54.600;9.842;2023-12-14T15:51:27;5.10;99.90
45849;DHT22;31567;54.600;9.842;2023-12-14T15:55:07;5.00;99.90
45849;DHT22;31567;54.600;9.842;2023-12-14T15:58:47;5.00;99.90
45849;DHT22;31567;54.600;9.842;2023-12-14T16:02:26;5.00;99.90
45849;DHT22;31567;54.600;9.842;2023-12-14T16:06:06;5.10;99.90
45849;DHT22;31567;54.600;9.842;2023-12-14T16:09:46;5.00;99.90
45849;DHT22;31567;54.600;9.842;2023-12-14T16:13:27;5.10;99.90
45849;DHT22;31567;54.600;9.842;2023-12-14T16:17:08;5.10;99.90
45849;DHT22;31567;54.600;9.842;2023-12-14T16:20:49;5.20;99.90
45849;DHT22;31567;54.600;9.842;2023-12-14T16:24:28;5.20;99.90
45849;DHT22;31567;54.600;9.842;2023-12-14T16:28:08;5.20;99.90
45849;DHT22;31567;54.600;9.842;2023-12-14T16:31:47;5.30;99.90
45849;DHT22;31567;54.600;9.842;2023-12-14T16:35:28;5.40;99.90
45849;DHT22;31567;54.600;9.842;2023-12-14T16:39:09;5.40;99.90
45849;DHT22;31567;54.600;9.842;2023-12-14T16:42:50;5.40;99.90
45849;DHT22;31567;54.600;9.842;2023-12-14T16:46:30;5.50;99.90
45849;DHT22;31567;54.600;9.842;2023-12-14T16:50:10;5.50;99.90
45849;DHT22;31567;54.600;9.842;2023-12-14T16:53:51;5.50;99.90
45849;DHT22;31567;54.600;9.842;2023-12-14T16:57:31;5.50;99.90
45849;DHT22;31567;54.600;9.842;2023-12-14T17:01:11;5.50;99.90
45849;DHT22;31567;54.600;9.842;2023-12-14T17:04:51;5.60;99.90
45849;DHT22;31567;54.600;9.842;2023-12-14T17:08:30;5.50;99.90
45849;DHT22;31567;54.600;9.842;2023-12-14T17:12:10;5.60;99.90
45849;DHT22;31567;54.600;9.842;2023-12-14T17:15:49;5.50;99.90
45849;DHT22;31567;54.600;9.842;2023-12-14T17:19:29;5.60;99.90
45849;DHT22;31567;54.600;9.842;2023-12-14T17:23:08;5.60;99.90
45849;DHT22;31567;54.600;9.842;2023-12-14T17:26:48;5.60;99.90
45849;DHT22;31567;54.600;9.842;2023-12-14T17:30:28;5.70;99.90
45849;DHT22;31567;54.600;9.842;2023-12-14T17:34:09;5.70;99.90
45849;DHT22;31567;54.600;9.842;2023-12-14T17:37:48;5.70;99.90
45849;DHT22;31567;54.600;9.842;2023-12-14T17:41:28;5.70;99.90
45849;DHT22;31567;54.600;9.842;2023-12-14T17:45:08;5.70;99.90
45849;DHT22;31567;54.600;9.842;2023-12-14T17:48:47;5.70;99.90
45849;DHT22;31567;54.600;9.842;2023-12-14T17:52:27;5.70;99.90
45849;DHT22;31567;54.600;9.842;2023-12-14T17:56:07;5.70;99.90
45849;DHT22;31567;54.600;9.842;2023-12-14T17:59:47;5.70;99.90
45849;DHT22;31567;54.600;9.842;2023-12-14T18:03:26;5.80;99.90
45849;DHT22;31567;54.600;9.842;2023-12-14T18:07:10;5.70;99.90
45849;DHT22;31567;54.600;9.842;2023-12-14T18:10:50;5.70;99.90
45849;DHT22;31567;54.600;9.842;2023-12-14T18:14:29;5.70;99.90
45849;DHT22;31567;54.600;9.842;2023-12-14T18:18:09;5.60;99.90
45849;DHT22;31567;54.600;9.842;2023-12-14T18:21:48;5.60;99.90
45849;DHT22;31567;54.600;9.842;2023-12-14T18:25:28;5.50;99.90
45849;DHT22;31567;54.600;9.842;2023-12-14T18:29:08;5.60;99.90
45849;DHT22;31567;54.600;9.842;2023-12-14T18:32:48;5.50;99.90
45849;DHT22;31567;54.600;9.842;2023-12-14T18:36:30;5.50;99.90
45849;DHT22;31567;54.600;9.842;2023-12-14T18:40:10;5.40;99.90
45849;DHT22;31567;54.600;9.842;2023-12-14T18:43:49;5.40;99.90
45849;DHT22;31567;54.600;9.842;2023-12-14T18:47:29;5.30;99.90
45849;DHT22;31567;54.600;9.842;2023-12-14T18:51:09;5.30;99.90
45849;DHT22;31567;54.600;9.842;2023-12-14T18:54:48;5.30;99.90
45849;DHT22;31567;54.600;9.842;2023-12-14T18:58:28;5.30;99.90
45849;DHT22;31567;54.600;9.842;2023-12-14T19:02:07;5.30;99.90
45849;DHT22;31567;54.600;9.842;2023-12-14T19:05:47;5.30;99.90
45849;DHT22;31567;54.600;9.842;2023-12-14T19:09:26;5.30;99.90
45849;DHT22;31567;54.600;9.842;2023-12-14T19:13:06;5.20;99.90
45849;DHT22;31567;54.600;9.842;2023-12-14T19:16:45;5.20;99.90
45849;DHT22;31567;54.600;9.842;2023-12-14T19:20:25;5.10;99.90
45849;DHT22;31567;54.600;9.842;2023-12-14T19:24:05;5.10;99.90
45849;DHT22;31567;54.600;9.842;2023-12-14T19:27:44;5.00;99.90
45849;DHT22;31567;54.600;9.842;2023-12-14T19:31:31;5.00;99.90
45849;DHT22;31567;54.600;9.842;2023-12-14T19:35:11;4.90;99.90
45849;DHT22;31567;54.600;9.842;2023-12-14T19:38:51;4.90;99.90
45849;DHT22;31567;54.600;9.842;2023-12-14T19:42:32;4.90;99.90
45849;DHT22;31567;54.600;9.842;2023-12-14T19:46:14;4.90;99.90
45849;DHT22;31567;54.600;9.842;2023-12-14T19:49:53;4.90;99.90
45849;DHT22;31567;54.600;9.842;2023-12-14T19:53:36;4.90;99.90
45849;DHT22;31567;54.600;9.842;2023-12-14T19:57:16;4.80;99.90
45849;DHT22;31567;54.600;9.842;2023-12-14T20:00:55;4.80;99.90
45849;DHT22;31567;54.600;9.842;2023-12-14T20:04:35;4.70;99.90
45849;DHT22;31567;54.600;9.842;2023-12-14T20:08:15;4.70;99.90
45849;DHT22;31567;54.600;9.842;2023-12-14T20:12:04;4.80;99.90
45849;DHT22;31567;54.600;9.842;2023-12-14T20:15:43;4.80;99.90
45849;DHT22;31567;54.600;9.842;2023-12-14T20:19:24;4.80;99.90
45849;DHT22;31567;54.600;9.842;2023-12-14T20:23:04;4.90;99.90
45849;DHT22;31567;54.600;9.842;2023-12-14T20:26:44;4.90;99.90
45849;DHT22;31567;54.600;9.842;2023-12-14T20:30:23;4.90;99.90
45849;DHT22;31567;54.600;9.842;2023-12-14T20:34:03;5.00;99.90
45849;DHT22;31567;54.600;9.842;2023-12-14T20:37:43;5.00;99.90
45849;DHT22;31567;54.600;9.842;2023-12-14T20:41:23;5.00;99.90
45849;DHT22;31567;54.600;9.842;2023-12-14T20:45:02;5.00;99.90
45849;DHT22;31567;54.600;9.842;2023-12-14T20:48:42;5.00;99.90
45849;DHT22;31567;54.600;9.842;2023-12-14T20:52:21;5.00;99.90
45849;DHT22;31567;54.600;9.842;2023-12-14T20:56:01;5.00;99.90
45849;DHT22;31567;54.600;9.842;2023-12-14T20:59:41;5.00;99.90
45849;DHT22;31567;54.600;9.842;2023-12-14T21:03:20;4.90;99.90
45849;DHT22;31567;54.600;9.842;2023-12-14T21:07:00;4.90;99.90
45849;DHT22;31567;54.600;9.842;2023-12-14T21:10:39;4.90;99.90
45849;DHT22;31567;54.600;9.842;2023-12-14T21:14:19;4.80;99.90
45849;DHT22;31567;54.600;9.842;2023-12-14T21:17:58;4.80;99.90
45849;DHT22;31567;54.600;9.842;2023-12-14T21:21:38;4.80;99.90
45849;DHT22;31567;54.600;9.842;2023-12-14T21:25:17;4.80;99.90
45849;DHT22;31567;54.600;9.842;2023-12-14T21:28:58;4.80;99.90
45849;DHT22;31567;54.600;9.842;2023-12-14T21:32:37;4.70;99.90
45849;DHT22;31567;54.600;9.842;2023-12-14T21:36:17;4.70;99.90
45849;DHT22;31567;54.600;9.842;2023-12-14T21:39:57;4.60;99.90
45849;DHT22;31567;54.600;9.842;2023-12-14T21:43:36;4.70;99.90
45849;DHT22;31567;54.600;9.842;2023-12-14T21:47:16;4.60;99.90
45849;DHT22;31567;54.600;9.842;2023-12-14T21:50:55;4.60;99.90
45849;DHT22;31567;54.600;9.842;2023-12-14T21:54:35;4.60;99.90
45849;DHT22;31567;54.600;9.842;2023-12-14T21:58:14;4.50;99.90
45849;DHT22;31567;54.600;9.842;2023-12-14T22:01:54;4.50;99.90
45849;DHT22;31567;54.600;9.842;2023-12-14T22:05:33;4.50;99.90
45849;DHT22;31567;54.600;9.842;2023-12-14T22:09:14;4.60;99.90
45849;DHT22;31567;54.600;9.842;2023-12-14T22:12:54;4.60;99.90
45849;DHT22;31567;54.600;9.842;2023-12-14T22:16:34;4.60;99.90
45849;DHT22;31567;54.600;9.842;2023-12-14T22:20:14;4.60;99.90
45849;DHT22;31567;54.600;9.842;2023-12-14T22:23:53;4.70;99.90
45849;DHT22;31567;54.600;9.842;2023-12-14T22:27:33;4.70;99.90
45849;DHT22;31567;54.600;9.842;2023-12-14T22:31:12;4.80;99.90
45849;DHT22;31567;54.600;9.842;2023-12-14T22:34:52;4.70;99.90
45849;DHT22;31567;54.600;9.842;2023-12-14T22:38:31;4.70;99.90
45849;DHT22;31567;54.600;9.842;2023-12-14T22:42:11;4.70;99.90
45849;DHT22;31567;54.600;9.842;2023-12-14T22:45:51;4.70;99.90
45849;DHT22;31567;54.600;9.842;2023-12-14T22:49:31;4.70;99.90
45849;DHT22;31567;54.600;9.842;2023-12-14T22:53:10;4.70;99.90
45849;DHT22;31567;54.600;9.842;2023-12-14T22:56:50;4.60;99.90
45849;DHT22;31567;54.600;9.842;2023-12-14T23:00:29;4.60;99.90
45849;DHT22;31567;54.600;9.842;2023-12-14T23:04:11;4.70;99.90
45849;DHT22;31567;54.600;9.842;2023-12-14T23:07:50;4.70;99.90
45849;DHT22;31567;54.600;9.842;2023-12-14T23:11:30;4.70;99.90
45849;DHT22;31567;54.600;9.842;2023-12-14T23:15:10;4.70;99.90
45849;DHT22;31567;54.600;9.842;2023-12-14T23:18:49;4.70;99.90
45849;DHT22;31567;54.600;9.842;2023-12-14T23:22:29;4.80;99.90
45849;DHT22;31567;54.600;9.842;2023-12-14T23:26:08;4.80;99.90
45849;DHT22;31567;54.600;9.842;2023-12-14T23:29:48;4.80;99.90
45849;DHT22;31567;54.600;9.842;2023-12-14T23:33:28;4.90;99.90
45849;DHT22;31567;54.600;9.842;2023-12-14T23:37:08;4.90;99.90
45849;DHT22;31567;54.600;9.842;2023-12-14T23:40:47;4.90;99.90
45849;DHT22;31567;54.600;9.842;2023-12-14T23:44:27;4.90;99.90
45849;DHT22;31567;54.600;9.842;2023-12-14T23:48:07;4.90;99.90